Time;durP1;ratioP1;P1;durP2;ratioP2;P2;SDS_P1;SDS_P2;PMS_P1;PMS_P2;Temp;Humidity;BMP_temperature;BMP_pressure;BME280_temperature;BME280_humidity;BME280_pressure;Samples;Min_cycle;Max_cycle;Signal;HPM_P1;HPM_P2
2022/01/09 00:01:25;;;;;;;7.68;1.90;;;;;;;15.63;71.54;100322.00;5053186;28;20033;-72
2022/01/09 00:03:53;;;;;;;7.38;1.60;;;;;;;15.60;71.65;100323.81;5049431;28;20060;-72
2022/01/09 00:06:20;;;;;;;2.67;1.00;;;;;;;15.55;71.75;100326.56;5067688;28;20047;-72
2022/01/09 00:08:48;;;;;;;9.75;2.25;;;;;;;15.53;72.13;100326.56;5058814;28;20110;-72
2022/01/09 00:11:18;;;;;;;3.15;1.48;;;;;;;15.52;72.09;100331.84;5059613;28;20040;-72
2022/01/09 00:13:47;;;;;;;8.13;2.05;;;;;;;15.52;71.98;100331.84;5052824;28;20090;-72
2022/01/09 00:16:15;;;;;;;6.00;1.88;;;;;;;15.50;71.94;100329.22;5073554;28;20511;-72
2022/01/09 00:18:42;;;;;;;6.47;1.88;;;;;;;15.51;72.03;100340.72;5072201;28;20041;-72
2022/01/09 00:21:11;;;;;;;5.85;1.80;;;;;;;15.52;71.94;100340.75;5073036;28;20434;-72
2022/01/09 00:23:39;;;;;;;12.57;2.97;;;;;;;15.50;72.02;100347.81;5024875;28;20051;-72
2022/01/09 00:26:08;;;;;;;11.90;5.20;;;;;;;15.50;72.03;100338.97;5058146;28;20086;-72
2022/01/09 00:28:36;;;;;;;9.02;3.33;;;;;;;15.51;72.15;100338.06;5070213;28;20082;-72
2022/01/09 00:31:05;;;;;;;13.68;5.68;;;;;;;15.53;72.08;100336.31;5063303;28;20056;-72
2022/01/09 00:33:33;;;;;;;14.70;7.90;;;;;;;15.53;71.95;100321.25;5054742;28;20037;-72
2022/01/09 00:36:00;;;;;;;11.98;6.13;;;;;;;15.56;72.00;100328.28;5051452;28;20132;-72
2022/01/09 00:38:28;;;;;;;7.30;2.33;;;;;;;15.57;72.11;100318.53;5049312;28;20068;-72
2022/01/09 00:40:56;;;;;;;7.20;2.38;;;;;;;15.58;72.07;100314.97;5049476;28;20041;-73
2022/01/09 00:43:23;;;;;;;8.55;3.20;;;;;;;15.60;72.01;100314.06;5053443;28;20048;-72
2022/01/09 00:45:51;;;;;;;18.90;8.52;;;;;;;15.59;72.27;100324.72;5065776;28;20509;-72
2022/01/09 00:48:20;;;;;;;29.85;11.75;;;;;;;15.63;72.13;100313.13;5050654;28;20067;-73
2022/01/09 00:50:47;;;;;;;5.70;2.08;;;;;;;15.64;72.00;100313.13;5066904;28;20052;-72
2022/01/09 00:53:15;;;;;;;5.90;1.67;;;;;;;15.47;72.28;100309.75;5069563;28;20054;-72
2022/01/09 00:55:43;;;;;;;10.40;3.78;;;;;;;15.38;72.54;100301.88;5070437;28;20039;-72
2022/01/09 00:58:11;;;;;;;7.10;2.72;;;;;;;15.42;72.40;100292.97;5052079;28;20045;-72
2022/01/09 01:00:39;;;;;;;10.05;2.58;;;;;;;15.44;72.14;100291.16;5052069;28;20036;-72
2022/01/09 01:03:07;;;;;;;7.57;2.50;;;;;;;15.45;72.12;100301.78;5052728;28;20048;-72
2022/01/09 01:05:36;;;;;;;6.53;2.35;;;;;;;15.48;72.17;100312.41;5051913;28;20041;-72
2022/01/09 01:08:05;;;;;;;9.30;1.90;;;;;;;15.49;72.20;100310.63;5070423;28;20045;-72
2022/01/09 01:10:32;;;;;;;5.28;1.63;;;;;;;15.45;72.26;100307.09;5069949;28;20568;-72
2022/01/09 01:13:00;;;;;;;7.55;1.75;;;;;;;15.43;72.26;100289.38;5069249;28;20044;-72
2022/01/09 01:15:27;;;;;;;7.18;1.45;;;;;;;15.40;72.52;100302.75;5069523;28;20043;-72
2022/01/09 01:17:55;;;;;;;7.57;1.63;;;;;;;15.41;72.64;100293.88;5069571;28;20506;-72
2022/01/09 01:20:23;;;;;;;8.65;1.10;;;;;;;15.48;72.72;100287.59;5070116;28;20040;-72
2022/01/09 01:22:53;;;;;;;5.25;1.73;;;;;;;15.52;72.73;100286.63;5045461;28;20047;-72
2022/01/09 01:25:21;;;;;;;6.90;1.27;;;;;;;15.51;72.78;100293.72;5048637;28;20051;-72
2022/01/09 01:27:49;;;;;;;7.03;1.25;;;;;;;15.55;72.90;100294.63;5036264;28;20440;-72
2022/01/09 01:30:17;;;;;;;6.10;1.42;;;;;;;15.57;72.75;100289.25;5016857;28;20114;-72
2022/01/09 01:32:45;;;;;;;4.82;1.08;;;;;;;15.51;72.91;100284.88;5033036;28;20048;-72
2022/01/09 01:35:13;;;;;;;5.75;1.40;;;;;;;15.47;73.15;100278.72;5050946;28;20041;-72
2022/01/09 01:37:42;;;;;;;6.55;1.45;;;;;;;15.45;73.43;100274.31;5067589;28;20051;-72
2022/01/09 01:40:14;;;;;;;5.57;1.13;;;;;;;15.49;73.48;100276.03;5066080;28;20505;-72
2022/01/09 01:42:43;;;;;;;8.15;1.38;;;;;;;15.52;73.20;100276.00;5068770;28;20044;-72
2022/01/09 01:45:11;;;;;;;6.55;1.10;;;;;;;15.54;72.91;100276.91;5069249;28;20036;-72
2022/01/09 01:47:39;;;;;;;7.32;1.27;;;;;;;15.56;72.85;100269.75;5050276;28;20443;-72
2022/01/09 01:50:09;;;;;;;7.45;2.10;;;;;;;15.53;72.57;100262.72;5074567;28;20052;-72
2022/01/09 01:52:41;;;;;;;5.05;2.40;;;;;;;15.50;72.48;100254.72;5041588;28;20477;-72
2022/01/09 01:55:13;;;;;;;4.68;1.63;;;;;;;15.47;72.47;100256.56;5031894;28;20091;-72
2022/01/09 01:57:42;;;;;;;9.48;1.27;;;;;;;15.40;72.43;100241.56;5058601;28;20047;-73
2022/01/09 02:00:14;;;;;;;5.68;0.93;;;;;;;15.36;72.28;100235.38;5061255;28;20124;-72
2022/01/09 02:02:41;;;;;;;5.55;2.15;;;;;;;15.31;72.28;100239.00;5059544;28;20037;-73
2022/01/09 02:05:10;;;;;;;5.13;1.77;;;;;;;15.26;72.26;100232.88;5068826;28;20082;-72
2022/01/09 02:07:39;;;;;;;15.13;4.68;;;;;;;15.21;72.10;100230.28;5050974;28;20045;-72
2022/01/09 02:10:09;;;;;;;9.65;3.72;;;;;;;15.17;72.11;100228.53;5034327;28;20040;-72
2022/01/09 02:12:40;;;;;;;6.43;3.10;;;;;;;15.16;71.92;100221.47;5050498;28;20032;-72
2022/01/09 02:15:28;;;;;;;15.07;3.20;;;;;;;15.15;71.54;100230.34;5051072;28;20119;-72
2022/01/09 02:17:56;;;;;;;10.38;3.75;;;;;;;15.09;71.56;100220.69;5051444;28;20049;-72
2022/01/09 02:20:25;;;;;;;7.25;3.22;;;;;;;15.10;71.53;100222.41;5049502;28;20107;-72
2022/01/09 02:22:53;;;;;;;10.55;1.75;;;;;;;15.09;71.50;100218.00;5069314;28;20451;-72
2022/01/09 02:25:20;;;;;;;7.75;1.70;;;;;;;15.09;71.34;100218.00;5060871;28;20124;-72
2022/01/09 02:27:48;;;;;;;5.70;1.70;;;;;;;15.15;71.37;100219.72;5059711;28;20040;-72
2022/01/09 02:30:15;;;;;;;6.93;1.42;;;;;;;15.19;71.16;100205.47;5047130;28;20124;-72
2022/01/09 02:32:43;;;;;;;8.73;1.25;;;;;;;15.20;71.06;100198.38;5048589;28;20045;-72
2022/01/09 02:35:11;;;;;;;6.60;1.20;;;;;;;15.17;70.88;100196.63;5035364;28;20117;-72
2022/01/09 02:37:41;;;;;;;9.10;1.50;;;;;;;15.13;70.84;100201.13;5067852;28;20546;-73
2022/01/09 02:40:10;;;;;;;8.20;1.10;;;;;;;15.07;70.75;100197.66;5050935;28;20059;-72
2022/01/09 02:42:38;;;;;;;2.65;0.68;;;;;;;15.01;70.75;100189.75;5068265;28;20489;-72
2022/01/09 02:45:06;;;;;;;10.25;1.42;;;;;;;15.01;70.87;100173.81;5050689;28;20049;-72
2022/01/09 02:47:35;;;;;;;6.85;1.40;;;;;;;15.05;70.71;100171.09;5068959;28;20128;-72
2022/01/09 02:50:12;;;;;;;10.60;1.85;;;;;;;15.10;70.56;100182.53;5067701;28;20120;-73
2022/01/09 02:52:51;;;;;;;6.40;1.92;;;;;;;15.14;70.49;100175.41;5052551;28;20058;-73
2022/01/09 02:55:19;;;;;;;7.88;0.98;;;;;;;15.09;70.48;100175.47;5051112;28;20075;-72
2022/01/09 02:57:48;;;;;;;4.40;2.00;;;;;;;15.10;70.67;100181.66;5049094;28;20121;-72
2022/01/09 03:00:18;;;;;;;8.98;3.42;;;;;;;15.07;70.87;100182.59;5067656;28;20041;-72
2022/01/09 03:02:47;;;;;;;14.25;6.72;;;;;;;15.03;71.07;100195.94;5067401;28;20043;-72
2022/01/09 03:05:15;;;;;;;16.92;5.22;;;;;;;15.00;71.35;100185.31;5061324;28;20071;-72
2022/01/09 03:07:45;;;;;;;24.83;8.73;;;;;;;14.95;71.57;100185.38;5051389;28;20045;-72
2022/01/09 03:10:14;;;;;;;7.40;2.92;;;;;;;14.90;71.84;100187.19;5050939;28;20037;-72
2022/01/09 03:12:42;;;;;;;10.32;1.45;;;;;;;14.88;72.01;100183.69;5056642;28;20094;-72
2022/01/09 03:15:10;;;;;;;7.65;1.60;;;;;;;14.92;71.69;100174.78;5072599;28;20159;-72
2022/01/09 03:17:39;;;;;;;5.80;1.10;;;;;;;14.92;71.57;100161.50;5053851;28;20056;-72
2022/01/09 03:20:12;;;;;;;8.20;1.25;;;;;;;14.98;71.47;100174.69;5071756;28;20048;-72
2022/01/09 03:22:39;;;;;;;10.63;1.75;;;;;;;15.00;71.21;100166.72;5044048;28;20048;-72
2022/01/09 03:25:11;;;;;;;12.63;1.25;;;;;;;15.00;71.20;100182.66;5055966;28;20067;-72
2022/01/09 03:27:40;;;;;;;13.27;1.77;;;;;;;14.99;70.91;100176.47;5070173;28;20555;-72
2022/01/09 03:30:09;;;;;;;18.80;1.80;;;;;;;14.98;70.73;100172.03;5058831;28;20115;-72
2022/01/09 03:32:37;;;;;;;14.63;1.58;;;;;;;14.98;70.39;100169.38;5044990;28;20048;-72
2022/01/09 03:35:06;;;;;;;11.30;1.83;;;;;;;14.98;70.15;100165.84;5066158;28;20053;-72
2022/01/09 03:37:34;;;;;;;10.85;1.50;;;;;;;14.97;70.08;100170.28;5071497;28;20036;-72
2022/01/09 03:40:02;;;;;;;18.00;1.75;;;;;;;14.96;69.78;100168.56;5047122;28;20517;-73
2022/01/09 03:42:31;;;;;;;9.73;1.23;;;;;;;14.93;69.67;100176.53;5051978;28;20049;-72
2022/01/09 03:44:59;;;;;;;8.05;1.23;;;;;;;14.89;69.55;100165.97;5075654;28;20044;-72
2022/01/09 03:47:26;;;;;;;22.55;2.03;;;;;;;14.87;69.50;100171.31;5071758;28;20044;-72
2022/01/09 03:49:54;;;;;;;10.55;1.15;;;;;;;14.88;69.33;100173.06;5053428;28;20040;-72
2022/01/09 03:52:26;;;;;;;10.20;0.95;;;;;;;14.87;69.03;100170.41;5070810;28;20040;-72
2022/01/09 03:54:53;;;;;;;11.15;0.93;;;;;;;14.87;68.85;100166.00;5053899;28;20048;-72
2022/01/09 03:57:21;;;;;;;5.20;0.90;;;;;;;14.91;68.53;100172.13;5054518;28;20040;-72
2022/01/09 03:59:50;;;;;;;9.10;1.05;;;;;;;14.94;68.47;100161.47;5036725;28;20057;-72
2022/01/09 04:02:18;;;;;;;8.20;1.40;;;;;;;14.92;68.42;100163.25;5071545;28;20077;-72
2022/01/09 04:04:46;;;;;;;12.55;2.20;;;;;;;14.93;68.30;100157.94;5071205;28;20500;-72
2022/01/09 04:07:15;;;;;;;14.23;3.25;;;;;;;14.91;68.02;100169.47;5070380;28;20076;-73
2022/01/09 04:09:45;;;;;;;17.92;3.50;;;;;;;14.93;68.03;100173.88;5053076;28;20075;-73
2022/01/09 04:12:17;;;;;;;18.13;3.85;;;;;;;14.93;67.87;100176.53;5036981;28;20041;-72
2022/01/09 04:14:47;;;;;;;21.52;4.80;;;;;;;14.89;67.89;100172.19;5069104;28;20059;-72
2022/01/09 04:17:24;;;;;;;8.02;1.92;;;;;;;14.82;68.00;100166.94;5070940;28;20445;-72
2022/01/09 04:19:51;;;;;;;20.35;6.50;;;;;;;14.67;68.14;100165.31;5063990;28;20049;-72
2022/01/09 04:22:19;;;;;;;13.30;3.65;;;;;;;14.56;68.28;100170.75;5071581;28;20044;-72
2022/01/09 04:24:47;;;;;;;18.45;4.70;;;;;;;14.55;68.40;100184.06;5071094;28;20398;-72
2022/01/09 04:27:14;;;;;;;17.50;5.63;;;;;;;14.42;68.52;100179.75;5058817;28;20120;-72
2022/01/09 04:29:42;;;;;;;15.85;4.60;;;;;;;14.30;68.67;100178.94;5069876;28;20047;-72
2022/01/09 04:32:10;;;;;;;14.27;4.32;;;;;;;14.27;68.75;100167.47;5058778;28;20127;-72
2022/01/09 04:34:39;;;;;;;18.35;4.38;;;;;;;14.23;68.57;100166.63;5069556;28;20057;-72
2022/01/09 04:37:07;;;;;;;19.10;4.75;;;;;;;14.12;68.69;100171.13;5053320;28;20060;-72
2022/01/09 04:39:35;;;;;;;12.68;3.28;;;;;;;14.02;68.98;100169.44;5052705;28;20455;-72
2022/01/09 04:42:02;;;;;;;11.63;3.08;;;;;;;13.96;69.20;100178.34;5052513;28;20408;-72
2022/01/09 04:44:30;;;;;;;13.10;3.75;;;;;;;13.94;69.40;100174.81;5052735;28;20128;-72
2022/01/09 04:47:06;;;;;;;23.50;8.85;;;;;;;13.93;69.42;100181.00;5051933;28;20097;-72
2022/01/09 04:49:38;;;;;;;25.30;6.70;;;;;;;13.84;69.62;100180.22;5063945;28;20044;-72
2022/01/09 04:52:12;;;;;;;27.63;8.95;;;;;;;13.82;69.68;100188.16;5069879;28;20040;-72
2022/01/09 04:54:39;;;;;;;28.10;8.45;;;;;;;13.76;69.78;100188.22;5070586;28;20048;-72
2022/01/09 04:57:08;;;;;;;30.75;9.80;;;;;;;13.74;69.83;100182.03;5052717;28;20090;-72
2022/01/09 04:59:35;;;;;;;24.10;13.40;;;;;;;13.66;70.10;100178.53;5070575;28;20603;-72
2022/01/09 05:02:03;;;;;;;28.38;14.05;;;;;;;13.61;70.40;100174.16;5070195;28;20115;-72
2022/01/09 05:04:31;;;;;;;18.17;10.02;;;;;;;13.57;70.40;100179.50;5068972;28;20072;-72
2022/01/09 05:06:59;;;;;;;24.13;6.43;;;;;;;13.51;70.48;100176.88;5070811;28;20500;-72
2022/01/09 05:09:28;;;;;;;20.30;9.02;;;;;;;13.45;70.63;100182.22;5052161;28;20076;-72
2022/01/09 05:11:56;;;;;;;26.55;11.27;;;;;;;13.42;70.66;100178.69;5037270;28;20076;-72
2022/01/09 05:14:24;;;;;;;19.30;7.00;;;;;;;13.38;70.67;100180.50;5051748;28;20037;-72
2022/01/09 05:16:51;;;;;;;19.25;6.00;;;;;;;13.29;70.61;100183.19;5053476;28;20501;-72
2022/01/09 05:19:21;;;;;;;16.27;5.00;;;;;;;13.26;70.75;100177.88;5070062;28;20552;-72
2022/01/09 05:21:49;;;;;;;15.18;7.93;;;;;;;13.23;70.94;100163.78;5050939;28;20055;-72
2022/01/09 05:24:17;;;;;;;19.88;5.13;;;;;;;13.22;70.92;100165.53;5051361;28;20098;-72
2022/01/09 05:26:46;;;;;;;13.13;5.20;;;;;;;13.13;70.80;100149.66;5050815;28;20409;-72
2022/01/09 05:29:14;;;;;;;19.73;6.30;;;;;;;13.11;70.74;100157.63;5069466;28;20504;-72
2022/01/09 05:31:44;;;;;;;15.68;4.53;;;;;;;13.05;70.76;100148.81;5069424;28;20159;-72
2022/01/09 05:34:11;;;;;;;15.57;4.63;;;;;;;13.01;70.84;100147.06;5069695;28;20123;-72
2022/01/09 05:36:39;;;;;;;21.45;6.20;;;;;;;13.01;70.75;100147.06;5054711;28;20459;-72
2022/01/09 05:39:07;;;;;;;30.45;9.52;;;;;;;12.99;70.89;100152.38;5031822;28;20404;-72
2022/01/09 05:41:34;;;;;;;14.65;3.05;;;;;;;12.99;70.93;100144.44;5065965;28;20044;-72
2022/01/09 05:44:03;;;;;;;21.35;6.72;;;;;;;12.95;71.02;100144.44;5069422;28;20070;-72
2022/01/09 05:46:31;;;;;;;18.85;5.50;;;;;;;12.94;71.20;100150.59;5041867;28;20090;-72
2022/01/09 05:48:58;;;;;;;22.30;5.90;;;;;;;12.94;71.33;100148.84;5051557;28;20047;-72
2022/01/09 05:51:26;;;;;;;24.02;7.22;;;;;;;12.91;71.41;100148.88;5055691;28;20159;-72
2022/01/09 05:53:54;;;;;;;21.98;7.00;;;;;;;12.89;71.63;100149.75;5049339;28;20052;-72
2022/01/09 05:56:21;;;;;;;16.42;4.97;;;;;;;12.84;71.57;100139.19;5036634;28;20045;-72
2022/01/09 05:58:49;;;;;;;17.50;4.20;;;;;;;12.89;71.59;100139.16;5067343;28;20113;-72
2022/01/09 06:01:18;;;;;;;14.05;3.95;;;;;;;12.96;71.53;100132.94;5066254;28;20128;-72
2022/01/09 06:03:46;;;;;;;12.23;2.80;;;;;;;13.03;71.57;100130.28;5067527;28;20090;-72
2022/01/09 06:06:13;;;;;;;12.85;3.95;;;;;;;13.19;71.52;100122.28;5066038;28;20079;-72
2022/01/09 06:08:41;;;;;;;18.05;3.65;;;;;;;13.33;71.39;100121.28;5058735;28;20488;-72
2022/01/09 06:11:08;;;;;;;15.25;2.10;;;;;;;13.47;71.25;100118.56;5050622;28;20478;-72
2022/01/09 06:13:36;;;;;;;5.05;1.50;;;;;;;13.61;71.00;100111.41;5069000;28;20071;-72
2022/01/09 06:16:05;;;;;;;10.95;1.85;;;;;;;13.73;70.89;100106.00;5068739;28;20500;-73
2022/01/09 06:18:34;;;;;;;9.40;1.95;;;;;;;13.88;70.93;100107.66;5050676;28;20042;-72
2022/01/09 06:21:01;;;;;;;9.20;3.25;;;;;;;14.03;70.70;100104.88;5068274;28;20135;-72
2022/01/09 06:23:29;;;;;;;14.60;6.25;;;;;;;14.20;70.50;100113.53;5051370;28;20044;-72
2022/01/09 06:25:57;;;;;;;9.85;4.75;;;;;;;14.34;70.77;100116.94;5069098;28;20052;-73
2022/01/09 06:28:24;;;;;;;11.23;3.72;;;;;;;14.41;72.52;100106.28;5068420;28;20284;-74
2022/01/09 06:30:52;;;;;;;8.70;3.05;;;;;;;14.44;73.84;100101.81;5051336;28;20036;-74
2022/01/09 06:33:20;;;;;;;16.40;9.50;;;;;;;14.52;74.95;100096.41;5071655;28;20408;-73
2022/01/09 06:35:49;;;;;;;27.92;11.98;;;;;;;14.61;75.30;100091.91;5068310;28;20036;-73
2022/01/09 06:38:17;;;;;;;22.63;14.75;;;;;;;14.77;75.44;100078.44;5069023;28;20045;-72
2022/01/09 06:40:44;;;;;;;21.60;12.38;;;;;;;14.94;75.21;100077.31;5066720;28;20082;-73
2022/01/09 06:43:12;;;;;;;28.05;16.15;;;;;;;15.01;75.18;100079.00;5067139;28;20056;-73
2022/01/09 06:45:40;;;;;;;26.08;15.35;;;;;;;15.07;75.51;100075.38;5050332;28;20098;-74
2022/01/09 06:48:08;;;;;;;26.15;16.20;;;;;;;15.07;75.89;100081.56;5067172;28;20079;-73
2022/01/09 06:50:37;;;;;;;21.80;11.45;;;;;;;15.16;75.80;100085.88;5042829;28;20045;-73
2022/01/09 06:53:06;;;;;;;14.65;7.20;;;;;;;15.30;75.59;100085.66;5049005;28;20412;-72
2022/01/09 06:55:34;;;;;;;7.05;3.03;;;;;;;15.37;75.69;100092.66;5048500;28;20132;-73
2022/01/09 06:58:02;;;;;;;6.63;2.20;;;;;;;15.46;75.45;100089.88;5047322;28;20052;-73
2022/01/09 07:00:29;;;;;;;6.70;1.83;;;;;;;15.54;75.46;100069.38;5048065;28;20048;-73
2022/01/09 07:02:57;;;;;;;5.50;1.25;;;;;;;15.58;75.36;100079.06;5052513;28;20045;-73
2022/01/09 07:05:25;;;;;;;2.70;1.33;;;;;;;15.51;74.70;100072.94;5057371;28;20040;-73
2022/01/09 07:07:53;;;;;;;5.57;1.30;;;;;;;15.44;74.93;100071.25;5053837;28;20489;-74
2022/01/09 07:10:22;;;;;;;5.03;1.27;;;;;;;15.40;75.28;100074.00;5067671;28;20128;-74
2022/01/09 07:12:49;;;;;;;4.60;1.90;;;;;;;15.31;75.57;100082.97;5040679;28;20049;-73
2022/01/09 07:15:17;;;;;;;10.13;4.93;;;;;;;15.03;76.34;100071.84;5033662;28;20496;-74
2022/01/09 07:17:45;;;;;;;16.80;8.93;;;;;;;14.80;77.28;100071.28;5059621;28;20045;-77
2022/01/09 07:20:13;;;;;;;19.50;11.80;;;;;;;14.61;78.15;100075.06;5002370;28;20056;-78
2022/01/09 07:22:40;;;;;;;12.38;7.47;;;;;;;14.47;78.51;100091.16;5067057;28;20053;-78
2022/01/09 07:25:09;;;;;;;11.18;4.60;;;;;;;14.40;78.93;100115.16;5048108;28;20120;-78
2022/01/09 07:27:38;;;;;;;9.15;2.78;;;;;;;14.34;79.09;100134.66;5033396;28;20061;-78
2022/01/09 07:30:07;;;;;;;7.95;3.80;;;;;;;14.21;80.20;100141.84;5058982;28;20127;-76
2022/01/09 07:32:36;;;;;;;6.15;2.92;;;;;;;14.03;80.53;100138.47;5065998;28;20041;-78
2022/01/09 07:35:04;;;;;;;7.60;3.75;;;;;;;13.80;80.92;100117.44;5060925;28;20052;-77
2022/01/09 07:37:31;;;;;;;15.57;10.23;;;;;;;13.76;81.56;100102.44;5061413;28;20033;-77
2022/01/09 07:40:00;;;;;;;19.05;7.20;;;;;;;13.77;81.92;100097.13;5068929;28;20049;-78
2022/01/09 07:42:27;;;;;;;13.55;4.40;;;;;;;13.83;82.12;100098.84;5061444;28;20040;-80
2022/01/09 07:44:57;;;;;;;13.85;7.40;;;;;;;13.93;82.12;100098.75;5031941;28;20045;-78
2022/01/09 07:47:24;;;;;;;18.13;9.75;;;;;;;13.94;81.95;100100.50;5061942;28;20044;-81
2022/01/09 07:49:52;;;;;;;13.85;8.07;;;;;;;13.91;81.84;100103.19;5062142;28;20118;-80
2022/01/09 07:52:20;;;;;;;11.48;5.60;;;;;;;13.83;81.91;100107.69;5060510;28;20060;-79
2022/01/09 07:54:47;;;;;;;9.32;5.30;;;;;;;13.67;82.10;100092.78;5053698;28;20045;-78
2022/01/09 07:57:15;;;;;;;17.63;7.55;;;;;;;13.55;82.14;100114.97;5043528;28;20072;-78
2022/01/09 07:59:43;;;;;;;13.25;5.75;;;;;;;13.50;82.10;100130.03;5071833;28;20048;-77
2022/01/09 08:02:12;;;;;;;9.77;4.90;;;;;;;13.45;82.13;100131.84;5044472;28;20123;-76
2022/01/09 08:04:39;;;;;;;12.77;6.07;;;;;;;13.43;82.10;100159.25;5060398;28;20048;-76
2022/01/09 08:07:07;;;;;;;12.82;6.93;;;;;;;13.40;82.19;100175.16;5062454;28;20072;-76
2022/01/09 08:09:35;;;;;;;7.82;2.53;;;;;;;13.37;82.22;100165.47;5061104;28;20049;-77
2022/01/09 08:12:03;;;;;;;3.97;1.40;;;;;;;13.38;82.15;100176.97;5067527;28;20060;-77
2022/01/09 08:14:31;;;;;;;4.95;1.58;;;;;;;13.30;82.31;100179.66;5053460;28;20413;-76
2022/01/09 08:16:59;;;;;;;22.65;13.27;;;;;;;13.09;82.73;100182.34;5046421;28;20052;-78
2022/01/09 08:19:30;;;;;;;19.95;11.13;;;;;;;13.08;82.95;100168.22;5045523;28;20124;-76
2022/01/09 08:21:58;;;;;;;11.27;6.40;;;;;;;13.15;83.08;100161.16;5067076;28;20400;-76
2022/01/09 08:24:26;;;;;;;6.32;3.30;;;;;;;13.16;83.12;100147.91;5068315;28;20123;-77
2022/01/09 08:26:54;;;;;;;6.80;2.83;;;;;;;13.15;83.22;100135.53;5069700;28;20500;-76
2022/01/09 08:29:21;;;;;;;5.57;2.55;;;;;;;13.12;83.02;100130.28;5071046;28;20161;-77
2022/01/09 08:31:50;;;;;;;4.25;1.00;;;;;;;13.05;83.08;100114.38;5067776;28;20055;-77
2022/01/09 08:34:17;;;;;;;1.40;0.70;;;;;;;12.97;83.68;100113.53;5050514;28;20044;-78
2022/01/09 08:36:47;;;;;;;5.10;1.83;;;;;;;13.01;83.81;100102.00;5036663;28;20076;-78
2022/01/09 08:39:14;;;;;;;15.25;7.32;;;;;;;13.03;83.82;100113.50;5079599;28;20056;-77
2022/01/09 08:41:42;;;;;;;39.10;18.83;;;;;;;13.09;83.91;100110.81;5056847;28;20046;-77
2022/01/09 08:44:09;;;;;;;35.22;17.10;;;;;;;13.15;84.11;100095.78;5070501;28;20123;-78
2022/01/09 08:46:38;;;;;;;22.40;14.63;;;;;;;13.20;84.21;100095.75;5053281;28;20041;-78
2022/01/09 08:49:06;;;;;;;55.30;41.47;;;;;;;13.16;84.11;100088.72;5055440;28;20048;-77
2022/01/09 08:51:34;;;;;;;67.28;47.63;;;;;;;13.09;84.32;100085.19;5071825;28;20518;-78
2022/01/09 08:54:03;;;;;;;59.88;43.70;;;;;;;13.03;84.48;100087.88;5053965;28;20063;-79
2022/01/09 08:56:32;;;;;;;68.80;50.55;;;;;;;12.97;84.66;100093.22;5053410;28;20044;-77
2022/01/09 08:59:01;;;;;;;44.90;32.67;;;;;;;12.92;84.88;100081.75;5057616;28;20623;-77
2022/01/09 09:01:29;;;;;;;62.88;41.08;;;;;;;12.88;85.11;100079.13;5060806;28;20045;-77
2022/01/09 09:03:56;;;;;;;104.25;69.28;;;;;;;12.81;85.15;100082.69;5070367;28;20048;-77
2022/01/09 09:06:24;;;;;;;141.70;96.68;;;;;;;12.78;85.28;100086.25;5071599;28;20435;-78
2022/01/09 09:08:52;;;;;;;108.22;76.68;;;;;;;12.65;85.66;100081.88;5059521;28;20041;-77
2022/01/09 09:11:21;;;;;;;82.28;57.55;;;;;;;12.55;85.89;100080.13;5051699;28;20060;-78
2022/01/09 09:13:49;;;;;;;86.78;64.03;;;;;;;12.49;86.27;100094.28;5043247;28;20116;-78
2022/01/09 09:16:17;;;;;;;84.00;55.45;;;;;;;12.45;86.30;100107.53;5050128;28;20044;-77
2022/01/09 09:18:46;;;;;;;109.25;77.25;;;;;;;12.43;86.54;100117.25;5037671;28;20474;-75
2022/01/09 09:21:14;;;;;;;87.70;63.42;;;;;;;12.43;86.71;100107.53;5060866;28;20044;-77
2022/01/09 09:23:42;;;;;;;129.60;88.88;;;;;;;12.43;86.84;100111.94;5060220;28;20064;-76
2022/01/09 09:26:10;;;;;;;77.07;54.95;;;;;;;12.43;86.87;100114.59;5055928;28;20076;-76
2022/01/09 09:28:40;;;;;;;32.35;21.10;;;;;;;12.38;86.92;100101.38;5063832;28;20043;-76
2022/01/09 09:31:07;;;;;;;24.95;15.60;;;;;;;12.33;87.03;100090.81;5053051;28;20599;-75
2022/01/09 09:33:35;;;;;;;11.07;5.70;;;;;;;12.29;86.79;100074.91;5067224;28;20474;-76
2022/01/09 09:36:04;;;;;;;5.40;2.30;;;;;;;12.25;86.70;100082.00;5064361;28;20041;-75
2022/01/09 09:38:33;;;;;;;3.78;1.85;;;;;;;12.21;86.62;100093.47;5070370;28;20569;-76
2022/01/09 09:41:01;;;;;;;2.88;1.25;;;;;;;12.17;86.89;100083.78;5064907;28;20504;-76
2022/01/09 09:43:29;;;;;;;4.82;2.00;;;;;;;12.24;87.02;100071.41;5056851;28;20040;-76
2022/01/09 09:45:58;;;;;;;22.08;14.23;;;;;;;12.29;87.10;100072.28;5052305;28;20048;-75
2022/01/09 09:48:26;;;;;;;118.90;80.53;;;;;;;12.32;87.01;100078.47;5051879;28;20523;-76
2022/01/09 09:50:53;;;;;;;106.53;72.38;;;;;;;12.40;87.11;100069.63;5052151;28;20079;-77
2022/01/09 09:53:21;;;;;;;66.90;46.47;;;;;;;12.43;87.12;100059.00;5051764;28;20544;-77
2022/01/09 09:55:51;;;;;;;76.72;52.45;;;;;;;12.48;87.17;100051.91;5052039;28;20500;-77
2022/01/09 09:58:19;;;;;;;109.90;74.00;;;;;;;12.48;87.22;100044.88;5069675;28;20040;-77
2022/01/09 10:00:53;;;;;;;111.57;72.45;;;;;;;12.43;87.34;100049.31;5052382;28;20079;-77
2022/01/09 10:03:30;;;;;;;56.95;35.92;;;;;;;12.31;87.60;100046.69;5070657;28;20128;-77
2022/01/09 10:05:58;;;;;;;23.30;15.48;;;;;;;12.23;87.76;100059.94;5075867;28;20055;-78
2022/01/09 10:08:37;;;;;;;25.95;18.70;;;;;;;12.19;88.16;100050.28;5081339;28;20060;-77
2022/01/09 10:11:15;;;;;;;62.75;40.53;;;;;;;12.18;88.38;100056.44;5064019;28;20041;-77
2022/01/09 10:13:43;;;;;;;98.68;65.40;;;;;;;12.18;88.57;100052.91;5089512;28;20044;-77
2022/01/09 10:16:31;;;;;;;216.88;140.13;;;;;;;12.21;88.70;100043.19;5052544;28;20710;-79
2022/01/09 10:19:00;;;;;;;156.00;101.38;;;;;;;12.28;88.66;100033.47;5070591;28;20036;-78
2022/01/09 10:21:27;;;;;;;153.88;103.05;;;;;;;12.31;88.69;100022.88;5051582;28;20079;-77
2022/01/09 10:24:00;;;;;;;147.15;102.57;;;;;;;12.36;88.67;100016.69;5052254;28;20041;-76
2022/01/09 10:26:29;;;;;;;221.77;157.77;;;;;;;12.38;88.58;100004.34;5061885;28;20090;-76
2022/01/09 10:28:56;;;;;;;206.77;135.73;;;;;;;12.42;88.72;100002.53;5051202;28;20047;-77
2022/01/09 10:31:24;;;;;;;213.48;143.63;;;;;;;12.49;88.84;99993.69;5068831;28;20040;-77
2022/01/09 10:34:06;;;;;;;108.43;77.43;;;;;;;12.62;88.91;99986.56;5031406;28;20128;-78
2022/01/09 10:36:39;;;;;;;123.95;95.90;;;;;;;12.66;89.02;99978.63;5055351;28;20507;-78
2022/01/09 10:39:13;;;;;;;65.05;45.45;;;;;;;12.75;89.05;99975.91;5062854;28;20050;-78
2022/01/09 10:42:09;;;;;;;47.50;31.63;;;;;;;12.80;89.06;99975.84;5091435;27;20417;-78
2022/01/09 10:44:39;;;;;;;49.72;34.63;;;;;;;12.89;89.10;99980.22;5055845;28;20060;-78
2022/01/09 10:47:09;;;;;;;56.95;42.90;;;;;;;12.96;88.83;99977.53;5064427;28;20041;-77
2022/01/09 10:49:39;;;;;;;188.95;140.38;;;;;;;12.99;89.00;99984.59;5064866;28;20040;-78
2022/01/09 10:52:14;;;;;;;139.43;104.50;;;;;;;13.00;89.07;100004.88;5063709;28;20048;-76
2022/01/09 10:54:46;;;;;;;63.72;44.78;;;;;;;12.97;89.11;100003.13;5064492;28;20045;-78
2022/01/09 10:57:18;;;;;;;66.95;43.20;;;;;;;12.90;89.28;100001.41;5065583;28;20049;-78
2022/01/09 10:59:46;;;;;;;103.45;77.05;;;;;;;12.77;89.47;99990.00;5060379;28;20049;-77
2022/01/09 11:02:13;;;;;;;81.88;57.13;;;;;;;12.78;89.50;99975.88;5054354;28;20157;-78
2022/01/09 11:04:42;;;;;;;51.15;36.53;;;;;;;12.87;89.56;99966.09;5056817;28;20112;-78
2022/01/09 11:07:11;;;;;;;30.23;19.98;;;;;;;12.96;89.64;99964.28;5064509;28;20055;-77
2022/01/09 11:09:40;;;;;;;49.17;33.65;;;;;;;13.02;89.42;99971.31;5053067;28;20040;-77
2022/01/09 11:12:10;;;;;;;29.13;20.75;;;;;;;13.01;89.51;99972.19;5058455;28;20048;-77
2022/01/09 11:14:42;;;;;;;44.42;30.83;;;;;;;12.99;89.50;99977.53;5062188;28;20119;-77
2022/01/09 11:17:11;;;;;;;57.35;39.60;;;;;;;12.98;89.67;99975.75;5045392;28;20045;-77
2022/01/09 11:19:39;;;;;;;61.88;42.53;;;;;;;12.92;89.51;99982.88;5043932;28;20075;-78
2022/01/09 11:22:10;;;;;;;49.22;33.90;;;;;;;12.89;89.51;99994.34;5061759;28;20063;-78
2022/01/09 11:25:04;;;;;;;42.78;29.13;;;;;;;12.82;89.18;100005.88;5028490;28;20060;-78